KHUL/HUL METAR and TAF weather

Enter ICAO airport designator
Station Type Date Time Source
KHUL METAR 2019/05/25 14:53 UTC NOAA

KHUL 251453Z AUTO VRB05KT 10SM CLR 20/06 A3010 RMK AO2 SLP194 T02000056 58003


Station Type Date Time Source
KHUL Decoded METAR 2019/05/25 14:53 UTC NOAA

HOULTON INT'L AIRPORT, ME, United States (KHUL) 46-07N 067-48W 150M
May 25, 2019 - 10:53 AM EDT / 2019.05.25 1453 UTC
Wind: Variable at 6 MPH (5 KT):0
Visibility: 10 mile(s):0
Sky conditions: clear
Temperature: 68.0 F (20.0 C)
Dew Point: 42.1 F (5.6 C)
Relative Humidity: 38%
Pressure (altimeter): 30.1 in. Hg (1019 hPa)
Pressure tendency: 0.01 inches (0.3 hPa) lower than three hours ago
ob: KHUL 251453Z AUTO VRB05KT 10SM CLR 20/06 A3010 RMK AO2 SLP194 T02000056 58003
cycle: 15

Station Type Date Time Source
KHUL TAF 2019/05/25 12:22 UTC NOAA

TAF KHUL 251120Z 2512/2612 34005KT P6SM SKC
FM252100 19004KT P6SM BKN200
FM260400 19006KT P6SM BKN070 OVC120
FM260600 18006KT P6SM -SHRA OVC050
FM260900 18006KT 6SM -SHRA BR OVC025

Example: see airport list